Time;durP1;ratioP1;P1;durP2;ratioP2;P2;SDS_P1;SDS_P2;PMS_P1;PMS_P2;Temp;Humidity;BMP_temperature;BMP_pressure;BME280_temperature;BME280_humidity;BME280_pressure;Samples;Min_cycle;Max_cycle;Signal;HPM_P1;HPM_P2
2021/08/10 00:01:02;;;;;;;2.87;1.83;;;18.10;72.60;;;;;;4927404;29;20491;-48
2021/08/10 00:03:29;;;;;;;2.60;2.13;;;18.10;72.80;;;;;;4928826;29;20467;-48
2021/08/10 00:05:56;;;;;;;5.07;2.70;;;18.10;73.00;;;;;;4927072;29;20469;-47
2021/08/10 00:08:22;;;;;;;4.57;2.03;;;18.10;73.20;;;;;;4930894;29;20544;-47
2021/08/10 00:10:50;;;;;;;4.37;2.67;;;18.10;73.10;;;;;;4914002;29;20825;-47
2021/08/10 00:13:20;;;;;;;3.77;2.30;;;18.10;73.20;;;;;;4912469;29;20504;-48
2021/08/10 00:15:47;;;;;;;5.30;2.20;;;18.10;73.20;;;;;;4931152;29;20556;-48
2021/08/10 00:18:14;;;;;;;4.10;2.47;;;18.10;73.50;;;;;;4926319;29;21032;-48
2021/08/10 00:20:41;;;;;;;3.67;2.73;;;18.00;73.60;;;;;;4928335;29;20475;-48
2021/08/10 00:23:08;;;;;;;3.03;2.37;;;18.00;73.70;;;;;;4932083;29;20957;-48
2021/08/10 00:25:35;;;;;;;4.23;2.57;;;18.00;73.80;;;;;;4926320;29;20486;-48
2021/08/10 00:28:02;;;;;;;5.33;2.33;;;18.00;73.80;;;;;;4929693;29;20506;-49
2021/08/10 00:30:29;;;;;;;4.40;3.50;;;18.00;74.10;;;;;;4914100;29;20467;-48
2021/08/10 00:32:56;;;;;;;6.33;3.03;;;18.00;74.20;;;;;;4931143;29;20487;-48
2021/08/10 00:35:23;;;;;;;6.17;4.10;;;17.90;74.20;;;;;;4927221;29;20489;-48
2021/08/10 00:37:49;;;;;;;4.37;2.97;;;17.90;74.40;;;;;;4929393;29;20464;-48
2021/08/10 00:40:19;;;;;;;3.67;3.33;;;17.80;74.60;;;;;;4927955;29;20470;-47
2021/08/10 00:42:46;;;;;;;5.30;4.80;;;17.80;74.80;;;;;;4925919;29;20850;-48
2021/08/10 00:45:13;;;;;;;4.80;2.90;;;17.80;74.90;;;;;;4900755;29;20479;-48
2021/08/10 00:47:40;;;;;;;3.90;2.30;;;17.80;75.10;;;;;;4928471;29;20463;-48
2021/08/10 00:50:07;;;;;;;5.03;2.10;;;17.70;75.20;;;;;;4927359;29;20527;-47
2021/08/10 00:52:34;;;;;;;3.07;2.30;;;17.70;75.30;;;;;;4929302;29;20833;-47
2021/08/10 00:55:03;;;;;;;2.53;2.20;;;17.60;75.40;;;;;;4928842;29;20499;-47
2021/08/10 00:57:30;;;;;;;3.77;2.13;;;17.60;75.60;;;;;;4928397;29;20868;-47
2021/08/10 01:00:00;;;;;;;3.10;2.03;;;17.50;75.80;;;;;;4925715;29;21110;-47
2021/08/10 01:02:27;;;;;;;3.40;2.37;;;17.50;75.90;;;;;;4896319;29;20466;-48
2021/08/10 01:04:54;;;;;;;5.03;2.40;;;17.50;76.00;;;;;;4928205;29;20514;-48
2021/08/10 01:07:33;;;;;;;4.37;2.20;;;17.50;75.90;;;;;;4927527;29;20819;-47
2021/08/10 01:10:11;;;;;;;2.93;2.23;;;17.50;76.00;;;;;;4899251;29;20511;-48
2021/08/10 01:13:04;;;;;;;6.03;2.47;;;17.50;76.00;;;;;;4926106;29;20539;-48
2021/08/10 01:15:37;;;;;;;5.60;1.90;;;17.40;76.20;;;;;;4927846;29;20627;-47
2021/08/10 01:18:13;;;;;;;3.93;2.80;;;17.40;76.30;;;;;;4928711;29;20465;-48
2021/08/10 01:20:57;;;;;;;3.33;2.13;;;17.40;76.10;;;;;;4929547;29;20474;-48
2021/08/10 01:23:28;;;;;;;6.20;2.53;;;17.30;76.10;;;;;;4926328;29;20849;-48
2021/08/10 01:26:25;;;;;;;3.20;2.17;;;17.30;76.10;;;;;;4928249;29;20544;-48
2021/08/10 01:29:17;;;;;;;2.60;2.23;;;17.30;76.10;;;;;;4925848;29;20475;-47
2021/08/10 01:31:45;;;;;;;3.37;2.00;;;17.30;76.00;;;;;;4926222;29;20590;-48
2021/08/10 01:34:23;;;;;;;3.07;2.10;;;17.30;76.00;;;;;;4926486;29;20838;-48
2021/08/10 01:36:53;;;;;;;3.60;2.00;;;17.20;76.10;;;;;;4926920;29;20987;-48
2021/08/10 01:39:22;;;;;;;4.50;1.70;;;17.20;76.20;;;;;;4928807;29;20503;-47
2021/08/10 01:41:49;;;;;;;3.20;2.10;;;17.20;76.40;;;;;;4928975;29;20555;-47
2021/08/10 01:44:17;;;;;;;3.20;2.23;;;17.20;76.40;;;;;;4914245;29;20458;-47
2021/08/10 01:46:46;;;;;;;3.40;2.23;;;17.10;76.50;;;;;;4927821;29;21304;-48
2021/08/10 01:49:15;;;;;;;2.27;1.93;;;17.10;76.60;;;;;;4914977;29;20471;-47
2021/08/10 01:51:42;;;;;;;3.90;2.50;;;17.10;76.70;;;;;;4928408;29;20460;-47
2021/08/10 01:54:10;;;;;;;4.30;2.13;;;17.10;76.70;;;;;;4928333;29;21707;-47
2021/08/10 01:56:37;;;;;;;5.57;2.17;;;17.10;76.60;;;;;;4910039;29;20822;-47
2021/08/10 01:59:05;;;;;;;2.30;2.10;;;17.10;76.60;;;;;;4925110;29;20547;-47
2021/08/10 02:01:34;;;;;;;2.50;2.00;;;17.00;76.80;;;;;;4928115;29;20496;-47
2021/08/10 02:04:03;;;;;;;3.53;2.40;;;17.00;76.90;;;;;;4930650;29;20580;-47
2021/08/10 02:06:31;;;;;;;6.37;2.63;;;17.00;76.90;;;;;;4925706;29;20559;-46
2021/08/10 02:08:59;;;;;;;6.20;2.77;;;17.00;76.90;;;;;;4927644;29;20543;-48
2021/08/10 02:11:28;;;;;;;4.50;2.53;;;17.00;76.90;;;;;;4925102;29;20969;-48
2021/08/10 02:13:57;;;;;;;3.33;2.60;;;17.00;76.90;;;;;;4928329;29;20491;-48
2021/08/10 02:16:26;;;;;;;3.17;2.03;;;16.90;77.00;;;;;;4928996;29;20784;-48
2021/08/10 02:18:54;;;;;;;3.83;2.43;;;16.90;77.00;;;;;;4927337;29;20550;-47
2021/08/10 02:21:29;;;;;;;3.20;2.53;;;17.00;77.00;;;;;;4924796;29;20460;-48
2021/08/10 02:24:24;;;;;;;5.47;3.10;;;16.90;77.00;;;;;;4928958;29;20450;-47
2021/08/10 02:26:58;;;;;;;4.60;2.20;;;16.90;76.90;;;;;;4921500;29;20563;-48
2021/08/10 02:29:29;;;;;;;4.47;2.37;;;16.90;77.00;;;;;;4928364;29;20471;-48
2021/08/10 02:31:56;;;;;;;4.53;2.23;;;16.90;77.10;;;;;;4922249;29;20455;-47
2021/08/10 02:34:24;;;;;;;4.77;2.13;;;16.90;77.30;;;;;;4929622;29;21040;-47
2021/08/10 02:36:56;;;;;;;4.40;2.00;;;16.90;77.20;;;;;;4921697;29;20846;-47
2021/08/10 02:39:24;;;;;;;3.43;2.13;;;16.90;77.20;;;;;;4916933;29;20555;-48
2021/08/10 02:41:53;;;;;;;6.60;2.53;;;16.90;77.30;;;;;;4929681;29;20456;-48
2021/08/10 02:44:21;;;;;;;4.17;2.80;;;16.90;77.20;;;;;;4928502;29;21011;-47
2021/08/10 02:46:48;;;;;;;4.50;2.40;;;16.90;77.20;;;;;;4931261;29;21053;-47
2021/08/10 02:49:15;;;;;;;3.00;2.60;;;16.90;77.10;;;;;;4930396;29;20486;-47
2021/08/10 02:51:42;;;;;;;3.70;2.50;;;16.90;77.20;;;;;;4933322;29;20810;-47
2021/08/10 02:54:09;;;;;;;2.50;2.00;;;16.90;77.20;;;;;;4928077;29;20499;-47
2021/08/10 02:56:47;;;;;;;2.33;1.97;;;16.90;77.30;;;;;;4929918;29;21047;-47
2021/08/10 02:59:13;;;;;;;2.93;2.50;;;16.90;77.20;;;;;;4931685;29;20793;-48
2021/08/10 03:01:49;;;;;;;3.53;1.93;;;16.90;77.20;;;;;;4933075;29;20509;-48
2021/08/10 03:04:18;;;;;;;2.77;2.10;;;16.90;77.40;;;;;;4930689;29;20455;-47
2021/08/10 03:06:45;;;;;;;4.73;2.23;;;16.90;77.70;;;;;;4930198;29;20878;-47
2021/08/10 03:09:13;;;;;;;4.03;2.03;;;16.90;77.80;;;;;;4929830;29;20470;-47
2021/08/10 03:11:42;;;;;;;3.90;2.60;;;16.80;77.80;;;;;;4931298;29;20472;-47
2021/08/10 03:14:11;;;;;;;5.10;3.03;;;16.80;77.80;;;;;;4912814;29;20953;-47
2021/08/10 03:16:41;;;;;;;3.00;2.07;;;16.80;77.90;;;;;;4916197;29;20468;-47
2021/08/10 03:19:10;;;;;;;6.07;2.40;;;16.80;78.00;;;;;;4929989;29;20460;-47
2021/08/10 03:21:38;;;;;;;3.00;2.50;;;16.80;78.10;;;;;;4930487;29;20977;-47
2021/08/10 03:24:08;;;;;;;3.40;2.77;;;16.80;78.10;;;;;;4929312;29;20449;-47
2021/08/10 03:26:36;;;;;;;5.37;2.40;;;16.80;78.00;;;;;;4933897;29;20472;-47
2021/08/10 03:29:04;;;;;;;3.13;2.40;;;16.80;78.10;;;;;;4928892;29;20902;-47
2021/08/10 03:31:32;;;;;;;3.90;2.90;;;16.80;78.30;;;;;;4931492;29;20468;-47
2021/08/10 03:33:59;;;;;;;2.90;2.10;;;16.80;78.30;;;;;;4929463;29;20474;-47
2021/08/10 03:36:26;;;;;;;2.70;2.00;;;16.80;78.30;;;;;;4928992;29;20521;-47
2021/08/10 03:38:57;;;;;;;4.07;2.13;;;16.80;78.40;;;;;;4931326;29;21174;-47
2021/08/10 03:41:26;;;;;;;2.43;2.13;;;16.80;78.40;;;;;;4927345;29;20973;-46
2021/08/10 03:43:55;;;;;;;3.70;1.67;;;16.80;78.30;;;;;;4930164;29;20467;-47
2021/08/10 03:46:23;;;;;;;3.93;1.90;;;16.80;78.20;;;;;;4930773;29;20548;-47
2021/08/10 03:48:50;;;;;;;3.60;2.00;;;16.80;78.00;;;;;;4926345;29;20464;-47
2021/08/10 03:51:18;;;;;;;4.13;1.90;;;16.80;77.90;;;;;;4929772;29;20485;-47
2021/08/10 03:53:46;;;;;;;3.07;2.13;;;16.80;78.00;;;;;;4929900;29;20546;-47
2021/08/10 03:56:14;;;;;;;6.20;2.10;;;16.90;78.30;;;;;;4928222;28;20502;-47
2021/08/10 03:58:43;;;;;;;2.77;1.93;;;16.90;78.30;;;;;;4926919;29;20469;-47
2021/08/10 04:01:11;;;;;;;2.43;2.00;;;16.90;78.20;;;;;;4927703;29;20487;-48
2021/08/10 04:03:40;;;;;;;2.90;1.80;;;16.90;78.10;;;;;;4912887;29;20931;-48
2021/08/10 04:06:08;;;;;;;3.33;2.40;;;16.80;78.10;;;;;;4898053;29;20466;-47
2021/08/10 04:08:35;;;;;;;3.60;1.60;;;16.80;78.00;;;;;;4929519;29;20492;-47
2021/08/10 04:11:03;;;;;;;3.57;2.20;;;16.80;78.10;;;;;;4929728;29;20474;-47
2021/08/10 04:13:32;;;;;;;2.93;2.10;;;16.80;78.10;;;;;;4930209;29;20930;-47
2021/08/10 04:16:03;;;;;;;2.30;2.00;;;16.80;78.10;;;;;;4928064;29;20495;-47
2021/08/10 04:18:33;;;;;;;2.73;2.00;;;16.80;78.10;;;;;;4928082;29;20461;-47
2021/08/10 04:20:59;;;;;;;4.57;2.37;;;16.80;78.10;;;;;;4928807;29;20463;-47
2021/08/10 04:23:26;;;;;;;2.97;2.23;;;16.80;78.20;;;;;;4927677;29;20536;-47
2021/08/10 04:25:53;;;;;;;3.50;2.80;;;16.80;78.30;;;;;;4927384;29;20965;-47
2021/08/10 04:28:20;;;;;;;5.73;2.20;;;16.80;78.40;;;;;;4913789;29;20460;-47
2021/08/10 04:30:47;;;;;;;2.20;2.00;;;16.80;78.40;;;;;;4914242;29;20464;-47
2021/08/10 04:33:14;;;;;;;3.27;1.90;;;16.80;78.50;;;;;;4929321;29;20492;-47
2021/08/10 04:35:41;;;;;;;3.00;2.20;;;16.80;78.60;;;;;;4929544;29;20984;-47
2021/08/10 04:38:08;;;;;;;2.57;2.00;;;16.80;78.60;;;;;;4928326;29;20466;-47
2021/08/10 04:40:37;;;;;;;2.80;2.50;;;16.90;78.60;;;;;;4927320;29;20468;-47
2021/08/10 04:43:06;;;;;;;5.47;2.83;;;16.90;78.60;;;;;;4929256;29;20476;-47
2021/08/10 04:45:33;;;;;;;1.90;1.63;;;16.90;78.60;;;;;;4929955;29;20471;-47
2021/08/10 04:48:00;;;;;;;3.37;2.23;;;16.90;78.60;;;;;;4928850;29;20468;-47
2021/08/10 04:50:26;;;;;;;2.93;1.73;;;16.90;78.50;;;;;;4914258;29;20555;-47
2021/08/10 04:52:53;;;;;;;4.40;2.23;;;16.90;78.40;;;;;;4929521;29;20459;-47
2021/08/10 04:55:20;;;;;;;3.40;2.30;;;16.90;78.40;;;;;;4927242;29;20519;-47
2021/08/10 04:57:47;;;;;;;2.10;1.87;;;16.90;78.30;;;;;;4927336;29;20838;-47
2021/08/10 05:00:14;;;;;;;3.63;2.50;;;16.90;78.30;;;;;;4915687;29;21121;-47
2021/08/10 05:02:41;;;;;;;4.43;2.00;;;16.90;78.30;;;;;;4915071;29;20555;-47
2021/08/10 05:05:09;;;;;;;3.77;2.20;;;16.90;78.30;;;;;;4928290;29;20472;-47
2021/08/10 05:07:35;;;;;;;4.40;2.00;;;16.90;78.20;;;;;;4929096;29;20468;-47
2021/08/10 05:10:03;;;;;;;6.80;2.37;;;16.90;78.00;;;;;;4926996;29;20464;-47
2021/08/10 05:12:30;;;;;;;2.57;2.23;;;16.90;78.00;;;;;;4914403;29;20482;-47
2021/08/10 05:14:57;;;;;;;2.70;2.20;;;16.90;78.30;;;;;;4928456;29;20468;-47
2021/08/10 05:17:27;;;;;;;3.83;2.33;;;17.00;78.50;;;;;;4931236;29;20459;-47
2021/08/10 05:19:53;;;;;;;3.17;2.30;;;17.00;78.50;;;;;;4928516;29;20477;-47
2021/08/10 05:22:20;;;;;;;3.57;1.97;;;17.00;78.50;;;;;;4923207;29;20539;-47
2021/08/10 05:24:47;;;;;;;4.43;2.90;;;17.10;78.60;;;;;;4924873;29;20464;-47
2021/08/10 05:27:14;;;;;;;6.13;3.37;;;17.10;78.70;;;;;;4911480;29;20468;-47
2021/08/10 05:29:41;;;;;;;6.43;2.13;;;17.00;78.80;;;;;;4926743;29;20491;-47
2021/08/10 05:32:08;;;;;;;4.60;3.07;;;17.10;78.60;;;;;;4929715;29;20502;-47
2021/08/10 05:34:35;;;;;;;3.30;2.77;;;17.10;78.50;;;;;;4924792;29;20521;-47
2021/08/10 05:37:03;;;;;;;3.20;2.70;;;17.00;78.60;;;;;;4923572;29;20489;-47
2021/08/10 05:39:29;;;;;;;3.90;3.03;;;17.00;78.70;;;;;;4924804;29;20468;-47
2021/08/10 05:41:56;;;;;;;4.20;2.40;;;17.00;78.80;;;;;;4929059;29;20452;-47
2021/08/10 05:44:24;;;;;;;3.83;2.43;;;17.10;78.80;;;;;;4929405;29;20472;-47
2021/08/10 05:46:51;;;;;;;2.70;2.13;;;17.10;78.90;;;;;;4929278;29;20463;-47
2021/08/10 05:49:18;;;;;;;4.50;2.50;;;17.10;79.30;;;;;;4928842;29;21099;-48
2021/08/10 05:51:44;;;;;;;5.30;2.60;;;17.10;79.60;;;;;;4928529;29;20468;-47
2021/08/10 05:54:13;;;;;;;4.50;2.63;;;17.20;80.00;;;;;;4928254;29;20469;-47
2021/08/10 05:56:40;;;;;;;3.30;2.43;;;17.20;80.00;;;;;;4913726;29;20505;-47
2021/08/10 05:59:09;;;;;;;4.60;2.70;;;17.20;80.30;;;;;;4925530;29;20543;-47
2021/08/10 06:01:37;;;;;;;7.20;2.63;;;17.20;80.50;;;;;;4927725;29;20497;-47
2021/08/10 06:04:05;;;;;;;2.90;2.30;;;17.10;80.50;;;;;;4926203;29;20465;-47
2021/08/10 06:06:34;;;;;;;3.53;2.47;;;17.10;80.50;;;;;;4924777;29;20467;-47
2021/08/10 06:09:02;;;;;;;16.13;4.30;;;17.10;80.50;;;;;;4927673;29;20479;-47
2021/08/10 06:11:30;;;;;;;3.00;1.93;;;17.10;80.30;;;;;;4926295;29;20996;-47
2021/08/10 06:13:56;;;;;;;3.90;2.40;;;17.20;80.00;;;;;;4929483;29;20459;-47
2021/08/10 06:16:23;;;;;;;3.07;2.70;;;17.20;80.00;;;;;;4929293;29;20500;-47
2021/08/10 06:18:50;;;;;;;2.87;2.23;;;17.20;80.20;;;;;;4928437;29;20456;-47
2021/08/10 06:21:17;;;;;;;4.63;3.93;;;17.20;80.30;;;;;;4928068;29;20542;-47
2021/08/10 06:23:44;;;;;;;4.07;2.17;;;17.30;80.00;;;;;;4927477;29;20562;-47
2021/08/10 06:26:11;;;;;;;4.17;2.30;;;17.30;80.00;;;;;;4930320;29;20450;-47
2021/08/10 06:28:38;;;;;;;3.30;2.33;;;17.30;79.90;;;;;;4928328;29;20460;-47
2021/08/10 06:31:05;;;;;;;3.83;2.50;;;17.30;79.90;;;;;;4918315;29;20818;-47
2021/08/10 06:33:32;;;;;;;3.50;2.70;;;17.30;79.80;;;;;;4926835;29;20460;-47
2021/08/10 06:35:59;;;;;;;6.87;2.33;;;17.30;79.70;;;;;;4908443;29;20488;-47
2021/08/10 06:38:26;;;;;;;2.57;2.13;;;17.30;79.50;;;;;;4928850;29;20470;-47
2021/08/10 06:40:53;;;;;;;4.07;2.40;;;17.40;79.20;;;;;;4924231;29;20459;-47
2021/08/10 06:43:20;;;;;;;3.60;2.67;;;17.40;79.00;;;;;;4926420;29;20978;-47
2021/08/10 06:45:47;;;;;;;3.07;2.07;;;17.50;78.80;;;;;;4925191;29;20480;-47
2021/08/10 06:48:14;;;;;;;5.03;2.70;;;17.50;79.00;;;;;;4921762;29;20471;-47
2021/08/10 06:50:41;;;;;;;3.47;2.50;;;17.50;79.20;;;;;;4925115;29;20468;-47
2021/08/10 06:53:08;;;;;;;4.27;2.20;;;17.60;79.20;;;;;;4914272;29;20487;-47
2021/08/10 06:55:35;;;;;;;3.03;2.73;;;17.60;79.20;;;;;;4927217;29;20492;-47
2021/08/10 06:58:01;;;;;;;7.57;3.43;;;17.70;78.80;;;;;;4924538;29;20452;-47
2021/08/10 07:00:28;;;;;;;4.90;2.63;;;17.70;78.60;;;;;;4923765;29;21021;-47
2021/08/10 07:02:55;;;;;;;11.00;2.70;;;17.80;78.40;;;;;;4925756;29;20472;-47
2021/08/10 07:05:25;;;;;;;6.70;2.77;;;17.80;78.40;;;;;;4925182;29;20527;-47
2021/08/10 07:07:52;;;;;;;2.50;2.07;;;17.90;78.10;;;;;;4927195;29;20771;-47
2021/08/10 07:10:19;;;;;;;2.83;2.30;;;17.90;77.60;;;;;;4925137;29;20876;-47
2021/08/10 07:12:46;;;;;;;3.00;2.60;;;17.90;77.50;;;;;;4916141;29;20487;-47
2021/08/10 07:15:13;;;;;;;3.83;2.73;;;18.00;77.30;;;;;;4929210;29;20456;-47
2021/08/10 07:17:40;;;;;;;3.77;2.30;;;18.00;77.10;;;;;;4926064;29;20483;-47
2021/08/10 07:20:07;;;;;;;3.63;2.90;;;18.00;77.20;;;;;;4915542;29;20466;-47
2021/08/10 07:22:33;;;;;;;3.47;2.70;;;18.10;77.20;;;;;;4925448;29;20471;-47
2021/08/10 07:25:01;;;;;;;6.93;2.60;;;18.10;77.10;;;;;;4927708;29;20550;-46
2021/08/10 07:27:27;;;;;;;6.73;3.03;;;18.20;77.00;;;;;;4914074;29;20478;-47
2021/08/10 07:29:54;;;;;;;8.30;2.93;;;18.20;76.80;;;;;;4909641;29;20460;-47
2021/08/10 07:32:21;;;;;;;8.70;2.30;;;18.20;76.70;;;;;;4934038;29;20452;-47
2021/08/10 07:34:49;;;;;;;3.07;2.70;;;18.30;77.00;;;;;;4931336;29;20463;-47
2021/08/10 07:37:16;;;;;;;3.83;2.23;;;18.50;77.00;;;;;;4935039;29;20985;-47
2021/08/10 07:39:43;;;;;;;3.57;2.47;;;18.70;76.50;;;;;;4921165;29;20816;-47
2021/08/10 07:42:11;;;;;;;2.87;2.00;;;18.90;75.30;;;;;;4931912;29;20456;-47
2021/08/10 07:44:39;;;;;;;4.43;2.17;;;19.20;74.30;;;;;;4932427;29;20821;-47
2021/08/10 07:47:06;;;;;;;2.93;2.40;;;19.50;73.80;;;;;;4934665;29;20982;-47
2021/08/10 07:49:37;;;;;;;3.57;2.10;;;19.70;73.10;;;;;;4936817;29;20482;-47
2021/08/10 07:52:04;;;;;;;4.10;1.97;;;19.90;72.30;;;;;;4935827;29;20492;-47
2021/08/10 07:54:31;;;;;;;3.57;2.40;;;20.10;71.90;;;;;;4927992;29;20467;-47
2021/08/10 07:56:59;;;;;;;4.70;2.23;;;20.20;71.50;;;;;;4934577;29;20503;-47
2021/08/10 07:59:26;;;;;;;3.57;2.50;;;20.40;71.50;;;;;;4932208;29;20470;-47
2021/08/10 08:01:55;;;;;;;5.70;2.27;;;20.50;71.10;;;;;;4939657;29;20911;-47
2021/08/10 08:04:22;;;;;;;4.40;2.90;;;20.60;70.80;;;;;;4932092;29;20555;-47
2021/08/10 08:06:49;;;;;;;3.50;2.37;;;20.70;70.60;;;;;;4932871;29;20486;-47
2021/08/10 08:09:16;;;;;;;3.67;2.33;;;20.80;70.00;;;;;;4937741;29;20464;-47
2021/08/10 08:11:43;;;;;;;3.70;2.37;;;20.90;69.80;;;;;;4932282;29;20567;-47
2021/08/10 08:14:10;;;;;;;5.80;2.13;;;20.90;69.50;;;;;;4935918;29;20471;-47
2021/08/10 08:16:37;;;;;;;8.50;3.90;;;20.90;69.80;;;;;;4918130;29;20559;-47
2021/08/10 08:19:04;;;;;;;6.03;2.13;;;21.00;69.10;;;;;;4937652;29;20483;-47
2021/08/10 08:21:30;;;;;;;4.03;2.03;;;21.00;68.40;;;;;;4916242;29;20563;-48
2021/08/10 08:23:57;;;;;;;2.53;1.90;;;21.00;67.90;;;;;;4937659;29;20459;-48
2021/08/10 08:26:24;;;;;;;2.40;1.50;;;21.00;67.80;;;;;;4933811;29;20456;-48
2021/08/10 08:28:50;;;;;;;4.57;1.70;;;21.00;67.90;;;;;;4935011;29;20468;-48
2021/08/10 08:31:17;;;;;;;2.20;1.97;;;21.00;67.70;;;;;;4933412;29;20475;-48
2021/08/10 08:33:44;;;;;;;3.20;2.00;;;21.20;66.90;;;;;;4913285;29;20975;-48
2021/08/10 08:36:13;;;;;;;4.60;2.07;;;21.40;67.20;;;;;;4936581;29;20483;-48
2021/08/10 08:38:40;;;;;;;3.87;2.00;;;21.60;66.30;;;;;;4934872;29;20466;-48
2021/08/10 08:41:08;;;;;;;2.53;1.60;;;21.80;65.60;;;;;;4933106;29;20464;-48
2021/08/10 08:43:38;;;;;;;3.37;1.70;;;22.10;65.20;;;;;;4932747;29;20539;-47
2021/08/10 08:46:05;;;;;;;2.23;1.73;;;22.30;64.50;;;;;;4933600;29;20448;-47
2021/08/10 08:48:33;;;;;;;4.20;2.00;;;22.50;64.30;;;;;;4934557;29;21045;-48
2021/08/10 08:51:03;;;;;;;2.77;1.63;;;22.60;63.10;;;;;;4933648;29;20459;-47
2021/08/10 08:53:30;;;;;;;3.03;1.80;;;22.80;63.00;;;;;;4916070;29;20972;-48
2021/08/10 08:55:57;;;;;;;3.10;2.20;;;22.90;63.10;;;;;;4930792;29;20499;-48
2021/08/10 08:58:24;;;;;;;1.90;1.60;;;23.20;62.30;;;;;;4931914;29;20543;-47
2021/08/10 09:00:51;;;;;;;2.97;1.90;;;23.50;61.00;;;;;;4903420;29;20578;-47
2021/08/10 09:03:17;;;;;;;5.17;2.27;;;23.70;60.20;;;;;;4919811;29;20478;-47
2021/08/10 09:05:45;;;;;;;7.23;2.10;;;23.90;59.90;;;;;;4918732;29;20969;-47
2021/08/10 09:08:28;;;;;;;2.13;1.57;;;24.00;59.80;;;;;;4930062;29;20566;-47
2021/08/10 09:10:57;;;;;;;6.03;2.77;;;24.20;59.20;;;;;;4926437;29;20486;-47
2021/08/10 09:13:24;;;;;;;3.30;1.90;;;24.50;58.40;;;;;;4933996;29;20466;-47
2021/08/10 09:15:52;;;;;;;3.53;1.80;;;24.90;57.50;;;;;;4934638;29;21011;-47
2021/08/10 09:18:21;;;;;;;3.63;1.90;;;25.00;57.40;;;;;;4932921;29;20541;-47
2021/08/10 09:21:05;;;;;;;1.90;1.70;;;25.10;56.30;;;;;;4931674;29;20462;-47
2021/08/10 09:23:53;;;;;;;3.77;2.07;;;25.00;55.60;;;;;;4929617;29;20961;-47
2021/08/10 09:26:36;;;;;;;2.40;2.20;;;24.90;56.20;;;;;;4929239;29;20463;-47
2021/08/10 09:29:03;;;;;;;3.60;2.10;;;24.70;57.00;;;;;;4935874;29;20458;-47
2021/08/10 09:31:38;;;;;;;3.50;1.90;;;24.90;57.50;;;;;;4931519;29;20956;-47
2021/08/10 09:34:25;;;;;;;3.03;1.87;;;25.30;56.50;;;;;;4932371;29;20474;-47
2021/08/10 09:36:53;;;;;;;4.37;2.83;;;25.80;54.60;;;;;;4914169;29;20578;-47
2021/08/10 09:39:46;;;;;;;3.87;2.00;;;26.00;54.30;;;;;;4934869;29;20462;-47
2021/08/10 09:42:13;;;;;;;2.37;2.13;;;25.80;54.50;;;;;;4928063;29;20443;-47
2021/08/10 09:45:04;;;;;;;3.77;2.30;;;25.50;55.20;;;;;;4910862;29;20463;-48
2021/08/10 09:47:35;;;;;;;5.13;2.50;;;25.50;55.90;;;;;;4908524;29;20459;-48
2021/08/10 09:50:02;;;;;;;2.83;2.20;;;25.60;56.00;;;;;;4928136;29;20464;-48
2021/08/10 09:52:32;;;;;;;3.63;2.50;;;25.70;56.00;;;;;;4936369;29;20647;-47
2021/08/10 09:55:13;;;;;;;6.33;2.33;;;25.60;55.80;;;;;;4932358;29;21587;-47
2021/08/10 09:57:41;;;;;;;4.73;2.30;;;25.50;56.30;;;;;;4930470;29;20486;-47
2021/08/10 10:00:08;;;;;;;2.93;2.40;;;25.30;56.40;;;;;;4931244;29;20573;-47
2021/08/10 10:02:36;;;;;;;2.77;2.53;;;25.20;57.50;;;;;;4931275;29;21015;-47
2021/08/10 10:05:03;;;;;;;4.40;2.50;;;25.10;57.50;;;;;;4926347;29;20827;-47
2021/08/10 10:07:30;;;;;;;5.00;2.90;;;25.00;57.40;;;;;;4934754;29;20521;-47
2021/08/10 10:09:58;;;;;;;4.47;3.50;;;25.00;57.50;;;;;;4930616;29;20557;-47
2021/08/10 10:12:25;;;;;;;2.73;2.27;;;24.90;58.00;;;;;;4919502;29;20454;-47
2021/08/10 10:14:58;;;;;;;7.00;2.20;;;24.90;58.20;;;;;;4893332;29;20466;-47
2021/08/10 10:17:25;;;;;;;4.43;2.83;;;24.80;58.50;;;;;;4929808;29;20599;-47
2021/08/10 10:19:54;;;;;;;4.70;2.40;;;24.70;58.30;;;;;;4903028;29;20474;-47
2021/08/10 10:22:23;;;;;;;6.67;2.63;;;24.70;58.40;;;;;;4930770;29;20466;-47
2021/08/10 10:24:57;;;;;;;3.37;2.43;;;24.60;58.40;;;;;;4931418;29;20550;-47
2021/08/10 10:27:24;;;;;;;3.67;2.43;;;24.50;59.20;;;;;;4929574;29;20539;-47
2021/08/10 10:29:54;;;;;;;4.23;2.70;;;24.40;58.00;;;;;;4932516;29;20554;-47
2021/08/10 10:32:23;;;;;;;4.10;2.30;;;24.30;58.20;;;;;;4928398;29;20852;-47
2021/08/10 10:34:50;;;;;;;3.67;2.40;;;24.30;58.50;;;;;;4927185;29;20460;-47
2021/08/10 10:37:31;;;;;;;4.00;2.30;;;24.30;58.80;;;;;;4929490;29;20493;-47
2021/08/10 10:40:00;;;;;;;2.87;2.57;;;24.30;58.60;;;;;;4923599;29;20844;-48
2021/08/10 10:42:28;;;;;;;3.83;2.30;;;24.40;58.10;;;;;;4927861;29;20456;-48
2021/08/10 10:44:55;;;;;;;3.83;2.80;;;24.40;57.70;;;;;;4930006;29;20486;-48
2021/08/10 10:47:22;;;;;;;3.90;2.63;;;24.50;58.10;;;;;;4914312;29;20463;-48
2021/08/10 10:49:57;;;;;;;5.30;2.90;;;24.60;57.90;;;;;;4931329;29;20867;-47
2021/08/10 10:52:26;;;;;;;4.87;2.60;;;24.60;58.20;;;;;;4905974;29;20462;-47
2021/08/10 10:54:54;;;;;;;3.70;2.40;;;24.60;58.30;;;;;;4932844;29;21038;-47
2021/08/10 10:57:32;;;;;;;5.10;2.70;;;24.60;57.70;;;;;;4936515;29;20482;-47
2021/08/10 11:00:02;;;;;;;2.90;2.50;;;24.60;58.30;;;;;;4932842;29;20485;-48
2021/08/10 11:02:29;;;;;;;2.70;2.50;;;24.60;57.40;;;;;;4933340;29;20457;-47
2021/08/10 11:05:08;;;;;;;3.93;2.53;;;24.60;56.70;;;;;;4917386;29;20463;-47
2021/08/10 11:07:39;;;;;;;5.50;2.73;;;24.50;57.30;;;;;;4937690;29;20972;-47
2021/08/10 11:10:25;;;;;;;3.70;2.90;;;24.40;57.20;;;;;;4939153;29;20869;-47
2021/08/10 11:12:52;;;;;;;3.70;2.87;;;24.40;58.20;;;;;;4924375;29;20517;-47
2021/08/10 11:15:43;;;;;;;4.43;2.70;;;24.30;57.70;;;;;;4918701;29;20455;-47
2021/08/10 11:18:12;;;;;;;3.07;2.40;;;24.30;58.10;;;;;;4933625;29;20499;-47
2021/08/10 11:20:51;;;;;;;3.00;2.67;;;24.30;58.50;;;;;;4910756;29;20449;-47
2021/08/10 11:25:50;;;;;;;4.87;3.20;;;24.30;58.10;;;;;;4935324;29;20454;-47
2021/08/10 11:28:27;;;;;;;3.87;2.77;;;24.20;57.20;;;;;;4935684;29;20451;-47
2021/08/10 11:30:56;;;;;;;4.20;2.80;;;24.20;57.80;;;;;;4934505;29;20461;-47
2021/08/10 11:33:34;;;;;;;4.63;2.47;;;24.20;58.00;;;;;;4937471;29;20579;-47
2021/08/10 11:36:13;;;;;;;4.80;3.53;;;24.20;58.40;;;;;;4915598;29;20470;-47
2021/08/10 11:38:51;;;;;;;3.43;2.70;;;24.10;59.20;;;;;;4936404;29;21014;-47
2021/08/10 11:41:48;;;;;;;3.77;3.33;;;24.20;58.40;;;;;;4934807;29;20461;-47
2021/08/10 11:44:20;;;;;;;5.17;2.63;;;24.20;58.70;;;;;;4933470;29;20997;-47
2021/08/10 11:46:47;;;;;;;2.90;2.60;;;24.30;59.10;;;;;;4907029;29;21022;-48
2021/08/10 11:49:20;;;;;;;3.60;3.00;;;24.30;59.00;;;;;;4938610;29;20447;-48
2021/08/10 11:51:48;;;;;;;4.10;2.83;;;24.40;59.20;;;;;;4935451;29;20490;-48
2021/08/10 11:54:19;;;;;;;3.97;3.10;;;24.40;58.00;;;;;;4940476;29;20517;-48
2021/08/10 11:57:01;;;;;;;6.17;3.00;;;24.40;58.80;;;;;;4931179;29;20538;-48
2021/08/10 11:59:27;;;;;;;5.40;3.07;;;24.50;58.30;;;;;;4934179;29;20473;-48
2021/08/10 12:01:58;;;;;;;3.43;3.00;;;24.60;58.10;;;;;;4933936;29;20486;-48
2021/08/10 12:04:30;;;;;;;4.03;2.97;;;24.60;57.90;;;;;;4919827;29;20535;-48
2021/08/10 12:06:58;;;;;;;4.47;2.80;;;24.70;58.00;;;;;;4938875;29;20458;-48
2021/08/10 12:09:35;;;;;;;3.23;2.93;;;24.90;57.20;;;;;;4932315;29;21001;-48
2021/08/10 12:12:04;;;;;;;4.13;3.07;;;25.00;56.90;;;;;;4920270;29;20534;-47
2021/08/10 12:14:33;;;;;;;3.90;3.50;;;25.10;56.80;;;;;;4937802;29;20463;-47
2021/08/10 12:17:03;;;;;;;3.07;2.80;;;25.20;57.10;;;;;;4928535;29;20520;-48
2021/08/10 12:19:39;;;;;;;3.70;2.97;;;25.20;56.80;;;;;;4933358;29;20474;-47
2021/08/10 12:22:21;;;;;;;5.00;2.90;;;25.20;56.10;;;;;;4913785;29;20459;-47
2021/08/10 12:24:50;;;;;;;6.60;3.43;;;25.20;54.60;;;;;;4940348;29;20445;-48
2021/08/10 12:27:19;;;;;;;5.63;3.53;;;25.20;55.00;;;;;;4932007;29;20471;-48
2021/08/10 12:29:50;;;;;;;5.53;3.03;;;25.10;55.80;;;;;;4929923;29;20998;-47
2021/08/10 12:32:33;;;;;;;3.80;3.10;;;25.10;56.10;;;;;;4927294;29;20471;-47
2021/08/10 12:35:18;;;;;;;4.20;3.30;;;25.10;56.60;;;;;;4932543;29;20533;-47
2021/08/10 12:37:48;;;;;;;3.77;2.87;;;25.00;56.90;;;;;;4922400;29;20610;-47
2021/08/10 12:40:18;;;;;;;3.87;2.97;;;25.10;56.90;;;;;;4936819;29;20460;-47
2021/08/10 12:42:45;;;;;;;5.00;3.40;;;25.10;56.40;;;;;;4936530;29;21042;-47
2021/08/10 12:45:14;;;;;;;10.73;3.73;;;25.10;55.80;;;;;;4930951;29;20452;-47
2021/08/10 12:47:43;;;;;;;5.43;3.63;;;25.10;56.30;;;;;;4935705;29;20479;-47
2021/08/10 12:50:32;;;;;;;4.67;3.30;;;25.10;56.00;;;;;;4933252;29;20466;-47
2021/08/10 12:52:59;;;;;;;3.97;3.30;;;25.20;55.70;;;;;;4921946;29;21220;-47
2021/08/10 12:55:46;;;;;;;5.00;3.70;;;25.30;55.90;;;;;;4916842;29;20456;-47
2021/08/10 12:58:14;;;;;;;5.33;3.00;;;25.30;55.60;;;;;;4934848;29;20499;-47
2021/08/10 13:00:42;;;;;;;4.40;3.57;;;25.40;55.10;;;;;;4937458;29;20487;-47